Main page
METAR-TAF:

METAR-TAF

Airports :

Troll C, Norway

Oil platform

latitude: 60-53-09N, longitude: 3-36-35E, elevation: 20 m

Current weather observation

The report was made 27 minutes ago, at 08:50 UTC
Wind 23 kt from the North
Temperature 4°C
Humidity 60%
Pressure 1014 hPa
Visibility 10 km or more

METAR: ENQC 290850Z AUTO 01023KT 9999NDV NCD 04/M03 Q1014 W///S5

Time: 11:17 (09:17 UTC)


TAF: missing

Weather observations and forecasts of more than 4000 airports (METAR and TAF reports).

The available stations are represented by yellow and red dots on the map.

Hover mouse over dot to see the name of the station.

Then click to see weather observations and forecasts.

To change the map : click on the green buttons with a black cross to zoom in, on the green button with a dash to zoom out, or on the green arrows for adjacent maps.


METAR-TAF: